sensor_id;sensor_type;location;lat;lon;timestamp;pressure;altitude;pressure_sealevel;temperature;humidity
41800;BME280;27468;47.460;19.034;2023-03-25T00:01:30;99447.09;;;16.06;51.22
41800;BME280;27468;47.460;19.034;2023-03-25T00:04:00;99479.22;;;16.17;51.28
41800;BME280;27468;47.460;19.034;2023-03-25T00:06:29;99492.25;;;16.22;50.95
41800;BME280;27468;47.460;19.034;2023-03-25T00:08:55;99437.06;;;15.96;51.01
41800;BME280;27468;47.460;19.034;2023-03-25T00:11:21;99460.28;;;16.08;51.03
41800;BME280;27468;47.460;19.034;2023-03-25T00:13:48;99466.38;;;16.10;50.75
41800;BME280;27468;47.460;19.034;2023-03-25T00:16:14;99463.47;;;16.14;50.84
41800;BME280;27468;47.460;19.034;2023-03-25T00:18:40;99472.00;;;16.19;50.43
41800;BME280;27468;47.460;19.034;2023-03-25T00:21:06;99408.94;;;15.92;50.18
41800;BME280;27468;47.460;19.034;2023-03-25T00:23:36;99469.00;;;16.26;50.03
41800;BME280;27468;47.460;19.034;2023-03-25T00:26:03;99485.38;;;16.34;50.04
41800;BME280;27468;47.460;19.034;2023-03-25T00:28:31;99469.84;;;16.26;50.16
41800;BME280;27468;47.460;19.034;2023-03-25T00:30:59;99479.19;;;16.33;50.34
41800;BME280;27468;47.460;19.034;2023-03-25T00:33:26;99463.16;;;16.19;50.41
41800;BME280;27468;47.460;19.034;2023-03-25T00:35:51;99475.09;;;16.28;50.34
41800;BME280;27468;47.460;19.034;2023-03-25T00:38:24;99402.34;;;15.83;50.60
41800;BME280;27468;47.460;19.034;2023-03-25T00:41:08;99460.91;;;16.27;50.54
41800;BME280;27468;47.460;19.034;2023-03-25T00:43:33;99432.66;;;16.10;50.48
41800;BME280;27468;47.460;19.034;2023-03-25T00:45:59;99458.63;;;16.21;51.00
41800;BME280;27468;47.460;19.034;2023-03-25T00:48:24;99439.97;;;16.07;51.46
41800;BME280;27468;47.460;19.034;2023-03-25T00:50:51;99429.59;;;16.02;51.68
41800;BME280;27468;47.460;19.034;2023-03-25T00:53:17;99469.06;;;16.24;51.56
41800;BME280;27468;47.460;19.034;2023-03-25T00:55:42;99461.56;;;16.16;51.85
41800;BME280;27468;47.460;19.034;2023-03-25T00:58:07;99475.59;;;16.34;51.89
41800;BME280;27468;47.460;19.034;2023-03-25T01:00:33;99444.63;;;16.17;52.22
41800;BME280;27468;47.460;19.034;2023-03-25T01:02:58;99489.75;;;16.35;52.57
41800;BME280;27468;47.460;19.034;2023-03-25T01:05:28;99462.13;;;16.22;53.12
41800;BME280;27468;47.460;19.034;2023-03-25T01:07:53;99445.63;;;16.16;53.42
41800;BME280;27468;47.460;19.034;2023-03-25T01:10:19;99453.22;;;16.23;54.02
41800;BME280;27468;47.460;19.034;2023-03-25T01:12:45;99400.19;;;15.74;54.61
41800;BME280;27468;47.460;19.034;2023-03-25T01:15:11;99438.50;;;16.01;55.09
41800;BME280;27468;47.460;19.034;2023-03-25T01:17:36;99435.25;;;15.96;55.18
41800;BME280;27468;47.460;19.034;2023-03-25T01:20:02;99466.88;;;16.16;55.52
41800;BME280;27468;47.460;19.034;2023-03-25T01:22:30;99422.13;;;15.77;56.14
41800;BME280;27468;47.460;19.034;2023-03-25T01:24:56;99437.06;;;15.80;56.51
41800;BME280;27468;47.460;19.034;2023-03-25T01:27:21;99493.22;;;16.05;57.06
41800;BME280;27468;47.460;19.034;2023-03-25T01:29:48;99470.75;;;15.79;57.63
41800;BME280;27468;47.460;19.034;2023-03-25T01:32:14;99489.44;;;15.94;57.74
41800;BME280;27468;47.460;19.034;2023-03-25T01:34:40;99486.19;;;15.89;58.08
41800;BME280;27468;47.460;19.034;2023-03-25T01:37:07;99395.63;;;15.29;59.20
41800;BME280;27468;47.460;19.034;2023-03-25T01:39:34;99427.25;;;15.49;59.41
41800;BME280;27468;47.460;19.034;2023-03-25T01:42:00;99488.66;;;15.76;60.71
41800;BME280;27468;47.460;19.034;2023-03-25T01:46:52;99483.16;;;15.63;61.29
41800;BME280;27468;47.460;19.034;2023-03-25T01:49:31;99471.09;;;15.58;62.18
41800;BME280;27468;47.460;19.034;2023-03-25T01:52:08;99499.97;;;15.64;62.54
41800;BME280;27468;47.460;19.034;2023-03-25T01:54:36;99501.88;;;15.44;63.62
41800;BME280;27468;47.460;19.034;2023-03-25T01:57:03;99488.84;;;15.40;63.63
41800;BME280;27468;47.460;19.034;2023-03-25T01:59:29;99410.97;;;14.91;63.52
41800;BME280;27468;47.460;19.034;2023-03-25T02:01:56;99483.09;;;15.32;63.86
41800;BME280;27468;47.460;19.034;2023-03-25T02:04:39;99453.75;;;15.17;64.28
41800;BME280;27468;47.460;19.034;2023-03-25T02:07:08;99483.25;;;15.29;64.56
41800;BME280;27468;47.460;19.034;2023-03-25T02:09:35;99504.09;;;15.36;65.29
41800;BME280;27468;47.460;19.034;2023-03-25T02:12:00;99471.56;;;15.15;65.08
41800;BME280;27468;47.460;19.034;2023-03-25T02:14:30;99442.41;;;14.98;65.81
41800;BME280;27468;47.460;19.034;2023-03-25T02:28:41;99453.38;;;14.58;68.95
41800;BME280;27468;47.460;19.034;2023-03-25T02:31:48;99505.34;;;14.79;69.86
41800;BME280;27468;47.460;19.034;2023-03-25T02:34:55;99506.91;;;14.66;71.19
41800;BME280;27468;47.460;19.034;2023-03-25T02:40:56;99426.34;;;14.15;70.91
41800;BME280;27468;47.460;19.034;2023-03-25T02:43:30;99492.38;;;14.56;70.79
41800;BME280;27468;47.460;19.034;2023-03-25T02:46:01;99498.13;;;14.46;71.03
41800;BME280;27468;47.460;19.034;2023-03-25T02:48:32;99498.13;;;14.46;70.84
41800;BME280;27468;47.460;19.034;2023-03-25T02:51:04;99501.91;;;14.42;70.98
41800;BME280;27468;47.460;19.034;2023-03-25T02:53:35;99505.75;;;14.35;70.34
41800;BME280;27468;47.460;19.034;2023-03-25T02:56:07;99497.16;;;14.30;70.30
41800;BME280;27468;47.460;19.034;2023-03-25T02:58:35;99498.97;;;14.30;70.07
41800;BME280;27468;47.460;19.034;2023-03-25T03:01:02;99457.34;;;14.13;69.32
41800;BME280;27468;47.460;19.034;2023-03-25T03:03:28;99455.22;;;14.02;69.04
41800;BME280;27468;47.460;19.034;2023-03-25T03:05:59;99438.75;;;13.96;68.69
41800;BME280;27468;47.460;19.034;2023-03-25T03:17:08;99498.13;;;14.10;69.19
41800;BME280;27468;47.460;19.034;2023-03-25T03:19:49;99509.16;;;14.20;69.65
41800;BME280;27468;47.460;19.034;2023-03-25T03:25:35;99467.81;;;13.80;70.36
41800;BME280;27468;47.460;19.034;2023-03-25T03:28:05;99514.41;;;14.03;73.03
41800;BME280;27468;47.460;19.034;2023-03-25T03:33:52;99468.66;;;13.43;76.42
41800;BME280;27468;47.460;19.034;2023-03-25T03:36:19;99471.72;;;13.34;77.76
41800;BME280;27468;47.460;19.034;2023-03-25T03:38:52;99496.78;;;13.45;77.93
41800;BME280;27468;47.460;19.034;2023-03-25T03:41:20;99528.72;;;13.61;80.01
41800;BME280;27468;47.460;19.034;2023-03-25T03:43:50;99508.06;;;13.30;80.59
41800;BME280;27468;47.460;19.034;2023-03-25T03:46:25;99508.63;;;13.18;81.83
41800;BME280;27468;47.460;19.034;2023-03-25T03:49:00;99523.16;;;13.08;84.68
41800;BME280;27468;47.460;19.034;2023-03-25T03:51:35;99555.47;;;13.16;85.25
41800;BME280;27468;47.460;19.034;2023-03-25T03:54:24;99508.84;;;12.71;84.74
41800;BME280;27468;47.460;19.034;2023-03-25T03:56:54;99466.34;;;12.35;85.66
41800;BME280;27468;47.460;19.034;2023-03-25T04:01:58;99573.53;;;12.84;85.83
41800;BME280;27468;47.460;19.034;2023-03-25T04:04:25;99557.31;;;12.72;86.52
41800;BME280;27468;47.460;19.034;2023-03-25T04:06:59;99576.13;;;12.86;87.26
41800;BME280;27468;47.460;19.034;2023-03-25T04:09:53;99542.91;;;12.59;88.04
41800;BME280;27468;47.460;19.034;2023-03-25T04:12:28;99512.81;;;12.41;87.80
41800;BME280;27468;47.460;19.034;2023-03-25T04:14:55;99573.19;;;12.72;88.13
41800;BME280;27468;47.460;19.034;2023-03-25T04:17:24;99569.03;;;12.66;88.35
41800;BME280;27468;47.460;19.034;2023-03-25T04:19:50;99557.97;;;12.56;87.81
41800;BME280;27468;47.460;19.034;2023-03-25T04:22:18;99592.25;;;12.80;88.29
41800;BME280;27468;47.460;19.034;2023-03-25T04:24:44;99567.19;;;12.68;88.18
41800;BME280;27468;47.460;19.034;2023-03-25T04:27:17;99548.22;;;12.59;87.82
41800;BME280;27468;47.460;19.034;2023-03-25T04:29:43;99574.22;;;12.69;88.40
41800;BME280;27468;47.460;19.034;2023-03-25T04:32:10;99563.09;;;12.61;88.97
41800;BME280;27468;47.460;19.034;2023-03-25T04:34:35;99596.06;;;12.73;89.13
41800;BME280;27468;47.460;19.034;2023-03-25T04:37:01;99551.16;;;12.51;88.78
41800;BME280;27468;47.460;19.034;2023-03-25T04:39:27;99606.59;;;12.74;89.17
41800;BME280;27468;47.460;19.034;2023-03-25T04:41:54;99609.84;;;12.81;88.55
41800;BME280;27468;47.460;19.034;2023-03-25T04:44:26;99542.88;;;12.38;89.30
41800;BME280;27468;47.460;19.034;2023-03-25T04:46:53;99575.69;;;12.54;89.45
41800;BME280;27468;47.460;19.034;2023-03-25T04:49:22;99575.50;;;12.59;88.47
41800;BME280;27468;47.460;19.034;2023-03-25T04:51:50;99564.13;;;12.35;87.32
41800;BME280;27468;47.460;19.034;2023-03-25T04:54:20;99580.44;;;12.46;87.21
41800;BME280;27468;47.460;19.034;2023-03-25T04:56:46;99610.56;;;12.64;86.47
41800;BME280;27468;47.460;19.034;2023-03-25T04:59:14;99600.97;;;12.62;86.02
41800;BME280;27468;47.460;19.034;2023-03-25T05:01:40;99614.25;;;12.60;86.68
41800;BME280;27468;47.460;19.034;2023-03-25T05:04:11;99601.50;;;12.48;88.05
41800;BME280;27468;47.460;19.034;2023-03-25T05:06:39;99607.47;;;12.53;87.65
41800;BME280;27468;47.460;19.034;2023-03-25T05:09:08;99613.56;;;12.55;86.75
41800;BME280;27468;47.460;19.034;2023-03-25T05:11:36;99576.50;;;12.35;86.12
41800;BME280;27468;47.460;19.034;2023-03-25T05:14:04;99643.44;;;12.79;86.42
41800;BME280;27468;47.460;19.034;2023-03-25T05:16:31;99645.09;;;12.81;85.83
41800;BME280;27468;47.460;19.034;2023-03-25T05:18:56;99649.47;;;12.82;85.20
41800;BME280;27468;47.460;19.034;2023-03-25T05:21:21;99640.00;;;12.77;84.92
41800;BME280;27468;47.460;19.034;2023-03-25T05:23:47;99602.44;;;12.47;85.35
41800;BME280;27468;47.460;19.034;2023-03-25T05:26:12;99581.47;;;12.42;85.64
41800;BME280;27468;47.460;19.034;2023-03-25T05:28:39;99660.22;;;12.78;85.46
41800;BME280;27468;47.460;19.034;2023-03-25T05:31:05;99630.00;;;12.63;85.82
41800;BME280;27468;47.460;19.034;2023-03-25T05:33:34;99661.94;;;12.79;86.77
41800;BME280;27468;47.460;19.034;2023-03-25T05:36:02;99633.38;;;12.67;86.96
41800;BME280;27468;47.460;19.034;2023-03-25T05:38:28;99577.16;;;12.40;86.31
41800;BME280;27468;47.460;19.034;2023-03-25T05:40:53;99615.00;;;12.64;87.48
41800;BME280;27468;47.460;19.034;2023-03-25T05:43:19;99649.34;;;12.85;87.47
41800;BME280;27468;47.460;19.034;2023-03-25T05:45:47;99621.94;;;12.66;88.44
41800;BME280;27468;47.460;19.034;2023-03-25T05:48:13;99649.59;;;12.79;88.49
41800;BME280;27468;47.460;19.034;2023-03-25T05:50:39;99604.78;;;12.54;88.47
41800;BME280;27468;47.460;19.034;2023-03-25T05:53:12;99648.84;;;12.76;87.83
41800;BME280;27468;47.460;19.034;2023-03-25T05:55:39;99667.53;;;12.71;85.81
41800;BME280;27468;47.460;19.034;2023-03-25T05:58:05;99594.06;;;12.36;84.93
41800;BME280;27468;47.460;19.034;2023-03-25T06:00:31;99575.06;;;12.26;83.01
41800;BME280;27468;47.460;19.034;2023-03-25T06:02:57;99625.25;;;12.49;81.30
41800;BME280;27468;47.460;19.034;2023-03-25T06:05:23;99668.75;;;12.64;80.50
41800;BME280;27468;47.460;19.034;2023-03-25T06:07:50;99659.31;;;12.57;80.04
41800;BME280;27468;47.460;19.034;2023-03-25T06:10:20;99669.66;;;12.63;80.60
41800;BME280;27468;47.460;19.034;2023-03-25T06:12:47;99670.41;;;12.67;80.86
41800;BME280;27468;47.460;19.034;2023-03-25T06:15:16;99665.84;;;12.70;81.18
41800;BME280;27468;47.460;19.034;2023-03-25T06:17:58;99624.75;;;12.40;80.74
41800;BME280;27468;47.460;19.034;2023-03-25T06:20:24;99669.34;;;12.71;81.41
41800;BME280;27468;47.460;19.034;2023-03-25T06:22:50;99647.59;;;12.64;81.89
41800;BME280;27468;47.460;19.034;2023-03-25T06:25:18;99661.28;;;12.74;82.18
41800;BME280;27468;47.460;19.034;2023-03-25T06:27:47;99662.34;;;12.70;82.48
41800;BME280;27468;47.460;19.034;2023-03-25T06:30:17;99642.28;;;12.64;82.42
41800;BME280;27468;47.460;19.034;2023-03-25T06:32:43;99625.88;;;12.56;82.72
41800;BME280;27468;47.460;19.034;2023-03-25T06:35:10;99655.84;;;12.77;82.08
41800;BME280;27468;47.460;19.034;2023-03-25T06:37:36;99594.56;;;12.45;81.45
41800;BME280;27468;47.460;19.034;2023-03-25T06:40:02;99652.47;;;12.73;81.92
41800;BME280;27468;47.460;19.034;2023-03-25T06:42:29;99666.13;;;12.84;81.92
41800;BME280;27468;47.460;19.034;2023-03-25T06:44:55;99605.94;;;12.47;81.58
41800;BME280;27468;47.460;19.034;2023-03-25T06:47:20;99674.94;;;12.85;80.29
41800;BME280;27468;47.460;19.034;2023-03-25T06:49:47;99667.44;;;12.96;80.39
41800;BME280;27468;47.460;19.034;2023-03-25T06:52:12;99682.50;;;12.94;78.84
41800;BME280;27468;47.460;19.034;2023-03-25T06:54:38;99665.81;;;12.92;78.46
41800;BME280;27468;47.460;19.034;2023-03-25T06:57:04;99641.66;;;12.79;77.60
41800;BME280;27468;47.460;19.034;2023-03-25T06:59:29;99682.69;;;13.11;77.80
41800;BME280;27468;47.460;19.034;2023-03-25T07:01:56;99691.59;;;13.31;76.81
41800;BME280;27468;47.460;19.034;2023-03-25T07:04:22;99630.59;;;13.12;76.61
41800;BME280;27468;47.460;19.034;2023-03-25T07:06:47;99649.97;;;13.34;75.82
41800;BME280;27468;47.460;19.034;2023-03-25T07:09:13;99659.91;;;13.49;75.44
41800;BME280;27468;47.460;19.034;2023-03-25T07:11:38;99640.31;;;13.53;73.06
41800;BME280;27468;47.460;19.034;2023-03-25T07:14:04;99679.75;;;13.80;73.19
41800;BME280;27468;47.460;19.034;2023-03-25T07:16:29;99690.72;;;13.91;72.49
41800;BME280;27468;47.460;19.034;2023-03-25T07:18:55;99646.59;;;13.71;71.07
41800;BME280;27468;47.460;19.034;2023-03-25T07:21:21;99697.53;;;13.97;70.60
41800;BME280;27468;47.460;19.034;2023-03-25T07:23:47;99659.28;;;13.83;70.60
41800;BME280;27468;47.460;19.034;2023-03-25T07:26:13;99708.97;;;14.17;70.76
41800;BME280;27468;47.460;19.034;2023-03-25T07:28:38;99699.88;;;14.23;70.57
41800;BME280;27468;47.460;19.034;2023-03-25T07:31:11;99704.84;;;14.31;70.33
41800;BME280;27468;47.460;19.034;2023-03-25T07:33:38;99710.06;;;14.32;69.34
41800;BME280;27468;47.460;19.034;2023-03-25T07:36:04;99659.31;;;14.21;69.93
41800;BME280;27468;47.460;19.034;2023-03-25T07:38:32;99705.00;;;14.46;67.90
41800;BME280;27468;47.460;19.034;2023-03-25T07:40:57;99666.13;;;14.27;67.94
41800;BME280;27468;47.460;19.034;2023-03-25T07:43:23;99660.63;;;14.31;66.65
41800;BME280;27468;47.460;19.034;2023-03-25T07:45:48;99644.34;;;14.20;66.30
41800;BME280;27468;47.460;19.034;2023-03-25T07:48:14;99691.16;;;14.40;65.75
41800;BME280;27468;47.460;19.034;2023-03-25T07:50:42;99665.78;;;14.34;64.52
41800;BME280;27468;47.460;19.034;2023-03-25T07:53:08;99702.59;;;14.42;64.14
41800;BME280;27468;47.460;19.034;2023-03-25T07:55:34;99664.84;;;14.16;64.59
41800;BME280;27468;47.460;19.034;2023-03-25T07:57:59;99669.00;;;14.22;64.03
41800;BME280;27468;47.460;19.034;2023-03-25T08:00:27;99650.44;;;14.22;64.01
41800;BME280;27468;47.460;19.034;2023-03-25T08:02:53;99684.22;;;14.37;63.35
41800;BME280;27468;47.460;19.034;2023-03-25T08:05:18;99648.50;;;14.26;63.49
41800;BME280;27468;47.460;19.034;2023-03-25T08:07:48;99710.47;;;14.62;63.31
41800;BME280;27468;47.460;19.034;2023-03-25T08:10:15;99694.41;;;14.65;63.31
41800;BME280;27468;47.460;19.034;2023-03-25T08:12:41;99711.53;;;14.77;62.99
41800;BME280;27468;47.460;19.034;2023-03-25T08:15:07;99620.13;;;14.28;62.20
41800;BME280;27468;47.460;19.034;2023-03-25T08:17:33;99714.09;;;14.97;61.33
41800;BME280;27468;47.460;19.034;2023-03-25T08:19:59;99708.78;;;14.97;59.25
41800;BME280;27468;47.460;19.034;2023-03-25T08:22:26;99593.84;;;14.42;58.86
41800;BME280;27468;47.460;19.034;2023-03-25T08:24:52;99647.91;;;14.75;57.53
41800;BME280;27468;47.460;19.034;2023-03-25T08:27:18;99647.78;;;14.60;57.70
41800;BME280;27468;47.460;19.034;2023-03-25T08:29:44;99677.53;;;14.85;58.23
41800;BME280;27468;47.460;19.034;2023-03-25T08:32:21;99704.94;;;15.03;58.27
41800;BME280;27468;47.460;19.034;2023-03-25T08:34:46;99695.38;;;15.00;58.13
41800;BME280;27468;47.460;19.034;2023-03-25T08:37:12;99691.28;;;14.93;57.82
41800;BME280;27468;47.460;19.034;2023-03-25T08:39:39;99692.22;;;14.92;57.67
41800;BME280;27468;47.460;19.034;2023-03-25T08:42:09;99689.97;;;15.02;57.29
41800;BME280;27468;47.460;19.034;2023-03-25T08:44:35;99633.31;;;14.67;56.38
41800;BME280;27468;47.460;19.034;2023-03-25T08:47:01;99660.31;;;14.94;55.93
41800;BME280;27468;47.460;19.034;2023-03-25T08:49:26;99671.28;;;15.03;56.43
41800;BME280;27468;47.460;19.034;2023-03-25T08:51:52;99675.16;;;15.15;56.02
41800;BME280;27468;47.460;19.034;2023-03-25T08:54:17;99692.13;;;15.30;54.81
41800;BME280;27468;47.460;19.034;2023-03-25T08:56:42;99686.66;;;15.33;54.50
41800;BME280;27468;47.460;19.034;2023-03-25T08:59:08;99683.00;;;15.52;53.12
41800;BME280;27468;47.460;19.034;2023-03-25T09:01:33;99678.47;;;15.55;52.56
41800;BME280;27468;47.460;19.034;2023-03-25T09:03:59;99615.88;;;15.14;52.42
41800;BME280;27468;47.460;19.034;2023-03-25T09:06:24;99675.31;;;15.64;53.15
41800;BME280;27468;47.460;19.034;2023-03-25T09:08:50;99685.00;;;15.82;53.10
41800;BME280;27468;47.460;19.034;2023-03-25T09:11:16;99662.34;;;15.75;52.51
41800;BME280;27468;47.460;19.034;2023-03-25T09:13:42;99624.34;;;15.57;52.24
41800;BME280;27468;47.460;19.034;2023-03-25T09:16:08;99673.28;;;15.86;52.62
41800;BME280;27468;47.460;19.034;2023-03-25T09:18:33;99674.06;;;15.88;52.59
41800;BME280;27468;47.460;19.034;2023-03-25T09:21:01;99661.25;;;15.79;52.53
41800;BME280;27468;47.460;19.034;2023-03-25T09:23:27;99675.28;;;15.98;52.11
41800;BME280;27468;47.460;19.034;2023-03-25T09:25:52;99677.72;;;16.03;52.67
41800;BME280;27468;47.460;19.034;2023-03-25T09:28:18;99685.00;;;15.99;52.31
41800;BME280;27468;47.460;19.034;2023-03-25T09:30:43;99680.97;;;16.08;51.03
41800;BME280;27468;47.460;19.034;2023-03-25T09:33:09;99648.16;;;15.92;50.24
41800;BME280;27468;47.460;19.034;2023-03-25T09:35:34;99666.59;;;16.12;50.80
41800;BME280;27468;47.460;19.034;2023-03-25T09:38:00;99664.53;;;16.33;51.23
41800;BME280;27468;47.460;19.034;2023-03-25T09:40:25;99673.41;;;16.49;51.35
41800;BME280;27468;47.460;19.034;2023-03-25T09:43:06;99621.28;;;16.29;50.39
41800;BME280;27468;47.460;19.034;2023-03-25T09:45:42;99664.91;;;16.58;49.30
41800;BME280;27468;47.460;19.034;2023-03-25T09:48:40;99641.81;;;16.43;47.16
41800;BME280;27468;47.460;19.034;2023-03-25T09:51:09;99674.22;;;16.67;48.19
41800;BME280;27468;47.460;19.034;2023-03-25T09:56:26;99668.34;;;16.76;47.28
41800;BME280;27468;47.460;19.034;2023-03-25T09:59:00;99677.28;;;16.91;46.85
41800;BME280;27468;47.460;19.034;2023-03-25T10:10:02;99660.81;;;16.68;45.33
41800;BME280;27468;47.460;19.034;2023-03-25T10:12:40;99692.66;;;16.86;45.93
41800;BME280;27468;47.460;19.034;2023-03-25T10:15:19;99697.47;;;16.95;45.19
41800;BME280;27468;47.460;19.034;2023-03-25T10:20:43;99685.69;;;16.99;45.92
41800;BME280;27468;47.460;19.034;2023-03-25T10:23:21;99686.47;;;17.01;45.84
41800;BME280;27468;47.460;19.034;2023-03-25T10:25:58;99666.72;;;16.89;46.53
41800;BME280;27468;47.460;19.034;2023-03-25T10:28:37;99635.84;;;16.71;47.37
41800;BME280;27468;47.460;19.034;2023-03-25T10:31:12;99672.03;;;17.05;47.16
41800;BME280;27468;47.460;19.034;2023-03-25T10:33:51;99681.78;;;17.20;47.36
41800;BME280;27468;47.460;19.034;2023-03-25T10:36:17;99681.47;;;17.40;47.13
41800;BME280;27468;47.460;19.034;2023-03-25T10:38:47;99688.50;;;17.41;47.00
41800;BME280;27468;47.460;19.034;2023-03-25T10:41:29;99684.97;;;17.41;46.77
41800;BME280;27468;47.460;19.034;2023-03-25T10:43:55;99672.88;;;17.35;46.95
41800;BME280;27468;47.460;19.034;2023-03-25T10:46:33;99680.88;;;17.35;47.59
41800;BME280;27468;47.460;19.034;2023-03-25T10:49:01;99683.84;;;17.31;46.47
41800;BME280;27468;47.460;19.034;2023-03-25T10:51:29;99668.31;;;17.23;45.18
41800;BME280;27468;47.460;19.034;2023-03-25T10:53:56;99684.41;;;17.36;45.66
41800;BME280;27468;47.460;19.034;2023-03-25T10:56:33;99642.81;;;17.33;45.53
41800;BME280;27468;47.460;19.034;2023-03-25T10:59:04;99681.25;;;17.59;44.80
41800;BME280;27468;47.460;19.034;2023-03-25T11:01:39;99671.41;;;17.75;44.96
41800;BME280;27468;47.460;19.034;2023-03-25T11:04:13;99632.22;;;17.62;44.01
41800;BME280;27468;47.460;19.034;2023-03-25T11:06:44;99677.50;;;17.92;44.00
41800;BME280;27468;47.460;19.034;2023-03-25T11:09:25;99629.91;;;17.56;42.77
41800;BME280;27468;47.460;19.034;2023-03-25T11:11:52;99664.25;;;17.76;42.11
41800;BME280;27468;47.460;19.034;2023-03-25T11:14:26;99675.03;;;17.74;42.08
41800;BME280;27468;47.460;19.034;2023-03-25T11:17:03;99680.25;;;17.76;42.38
41800;BME280;27468;47.460;19.034;2023-03-25T11:19:35;99637.16;;;17.54;42.71
41800;BME280;27468;47.460;19.034;2023-03-25T11:22:12;99675.16;;;17.87;42.51
41800;BME280;27468;47.460;19.034;2023-03-25T11:24:44;99698.00;;;18.05;42.88
41800;BME280;27468;47.460;19.034;2023-03-25T11:27:17;99641.22;;;17.75;42.33
41800;BME280;27468;47.460;19.034;2023-03-25T11:29:51;99688.94;;;18.08;41.77
41800;BME280;27468;47.460;19.034;2023-03-25T11:32:39;99683.44;;;18.11;42.31
41800;BME280;27468;47.460;19.034;2023-03-25T11:35:20;99649.97;;;17.91;41.17
41800;BME280;27468;47.460;19.034;2023-03-25T11:37:52;99619.53;;;17.81;40.42
41800;BME280;27468;47.460;19.034;2023-03-25T11:40:18;99662.47;;;17.91;39.73
41800;BME280;27468;47.460;19.034;2023-03-25T11:42:50;99679.81;;;17.84;40.29
41800;BME280;27468;47.460;19.034;2023-03-25T11:45:25;99684.38;;;17.81;40.22
41800;BME280;27468;47.460;19.034;2023-03-25T11:47:52;99674.66;;;17.80;39.93
41800;BME280;27468;47.460;19.034;2023-03-25T11:50:24;99671.78;;;17.54;40.22
41800;BME280;27468;47.460;19.034;2023-03-25T11:52:56;99659.69;;;17.48;40.34
41800;BME280;27468;47.460;19.034;2023-03-25T11:55:27;99634.44;;;17.39;40.02
41800;BME280;27468;47.460;19.034;2023-03-25T11:57:55;99709.41;;;17.79;39.48
41800;BME280;27468;47.460;19.034;2023-03-25T12:00:37;99682.94;;;17.60;39.33
41800;BME280;27468;47.460;19.034;2023-03-25T12:03:08;99642.66;;;17.50;39.07
41800;BME280;27468;47.460;19.034;2023-03-25T12:05:40;99674.69;;;17.65;38.83
41800;BME280;27468;47.460;19.034;2023-03-25T12:08:17;99691.06;;;17.89;39.00
41800;BME280;27468;47.460;19.034;2023-03-25T12:10:53;99633.94;;;17.63;38.30
41800;BME280;27468;47.460;19.034;2023-03-25T12:22:05;99629.66;;;17.60;38.67
41800;BME280;27468;47.460;19.034;2023-03-25T12:27:45;99677.97;;;17.98;38.18
41800;BME280;27468;47.460;19.034;2023-03-25T12:33:19;99660.25;;;17.69;36.71
41800;BME280;27468;47.460;19.034;2023-03-25T12:49:45;99641.25;;;17.59;37.38
41800;BME280;27468;47.460;19.034;2023-03-25T12:55:57;99643.88;;;17.45;37.19
41800;BME280;27468;47.460;19.034;2023-03-25T13:13:39;99632.28;;;17.46;37.24
41800;BME280;27468;47.460;19.034;2023-03-25T13:16:14;99627.81;;;17.46;37.40
41800;BME280;27468;47.460;19.034;2023-03-25T13:21:23;99572.28;;;17.10;37.44
41800;BME280;27468;47.460;19.034;2023-03-25T13:23:59;99579.72;;;17.20;37.37
41800;BME280;27468;47.460;19.034;2023-03-25T13:26:28;99617.91;;;17.48;37.58
41800;BME280;27468;47.460;19.034;2023-03-25T13:28:59;99635.16;;;17.57;37.48
41800;BME280;27468;47.460;19.034;2023-03-25T13:31:29;99583.38;;;17.33;37.47
41800;BME280;27468;47.460;19.034;2023-03-25T13:36:30;99602.00;;;17.47;36.79
41800;BME280;27468;47.460;19.034;2023-03-25T13:39:04;99629.56;;;17.62;39.74
41800;BME280;27468;47.460;19.034;2023-03-25T13:41:43;99641.50;;;17.70;37.99
41800;BME280;27468;47.460;19.034;2023-03-25T13:44:26;99637.72;;;17.59;36.86
41800;BME280;27468;47.460;19.034;2023-03-25T13:46:59;99628.59;;;17.63;36.24
41800;BME280;27468;47.460;19.034;2023-03-25T13:49:40;99625.50;;;17.40;35.74
41800;BME280;27468;47.460;19.034;2023-03-25T13:52:08;99600.63;;;17.11;35.93
41800;BME280;27468;47.460;19.034;2023-03-25T13:54:45;99623.56;;;17.14;35.96
41800;BME280;27468;47.460;19.034;2023-03-25T14:06:15;99636.94;;;17.42;36.07
41800;BME280;27468;47.460;19.034;2023-03-25T14:11:39;99647.56;;;17.28;36.56
41800;BME280;27468;47.460;19.034;2023-03-25T14:14:10;99654.38;;;17.18;36.68
41800;BME280;27468;47.460;19.034;2023-03-25T14:16:44;99652.84;;;17.14;37.12
41800;BME280;27468;47.460;19.034;2023-03-25T14:19:14;99640.09;;;16.89;37.23
41800;BME280;27468;47.460;19.034;2023-03-25T14:21:46;99636.66;;;16.87;37.27
41800;BME280;27468;47.460;19.034;2023-03-25T14:24:28;99628.31;;;16.93;37.43
41800;BME280;27468;47.460;19.034;2023-03-25T14:27:01;99629.53;;;16.88;37.63
41800;BME280;27468;47.460;19.034;2023-03-25T14:29:56;99586.47;;;16.65;37.55
41800;BME280;27468;47.460;19.034;2023-03-25T14:32:27;99642.41;;;16.95;37.41
41800;BME280;27468;47.460;19.034;2023-03-25T14:43:38;99641.47;;;16.80;37.80
41800;BME280;27468;47.460;19.034;2023-03-25T14:53:49;99574.69;;;16.54;37.38
41800;BME280;27468;47.460;19.034;2023-03-25T14:56:18;99635.72;;;16.88;36.86
41800;BME280;27468;47.460;19.034;2023-03-25T14:58:50;99571.94;;;16.55;36.58
41800;BME280;27468;47.460;19.034;2023-03-25T15:01:19;99569.66;;;16.65;36.18
41800;BME280;27468;47.460;19.034;2023-03-25T15:03:45;99572.72;;;16.57;35.56
41800;BME280;27468;47.460;19.034;2023-03-25T15:06:19;99606.81;;;16.66;35.80
41800;BME280;27468;47.460;19.034;2023-03-25T15:08:55;99617.56;;;16.65;35.40
41800;BME280;27468;47.460;19.034;2023-03-25T15:11:32;99593.16;;;16.41;34.52
41800;BME280;27468;47.460;19.034;2023-03-25T15:14:07;99581.81;;;16.37;34.06